Time;durP1;ratioP1;P1;durP2;ratioP2;P2;SDS_P1;SDS_P2;PMS_P1;PMS_P2;Temp;Humidity;BMP_temperature;BMP_pressure;BME280_temperature;BME280_humidity;BME280_pressure;Samples;Min_cycle;Max_cycle;Signal;HPM_P1;HPM_P2
2023/01/31 00:00:24;;;;;;;32.92;2.97;;;;;;;-0.55;100.00;102355.78;5079296;28;20055;-96
2023/01/31 00:02:52;;;;;;;25.67;2.70;;;;;;;-0.69;100.00;102337.81;5089427;28;20035;-96
2023/01/31 00:05:20;;;;;;;23.07;2.30;;;;;;;-0.49;100.00;102368.34;5084698;28;20275;-96
2023/01/31 00:07:46;;;;;;;27.85;3.15;;;;;;;-0.51;100.00;102357.13;5080219;28;20032;-96
2023/01/31 00:10:12;;;;;;;35.85;3.35;;;;;;;-0.40;100.00;102369.28;5081755;28;20024;-96
2023/01/31 00:12:38;;;;;;;25.83;2.63;;;;;;;-0.26;100.00;102378.50;5083369;28;20044;-96
2023/01/31 00:15:06;;;;;;;24.20;2.37;;;;;;;-0.23;100.00;102385.25;5089659;28;20021;-96
2023/01/31 00:17:32;;;;;;;26.88;3.20;;;;;;;-0.27;100.00;102391.81;5090728;28;20017;-96
2023/01/31 00:19:57;;;;;;;28.07;2.70;;;;;;;-0.42;100.00;102375.66;5090287;28;20055;-96
2023/01/31 00:22:23;;;;;;;27.02;2.67;;;;;;;-0.27;100.00;102394.47;5093313;28;20126;-96
2023/01/31 00:24:48;;;;;;;31.47;3.10;;;;;;;-0.44;100.00;102364.44;5091975;28;20031;-96
2023/01/31 00:27:14;;;;;;;26.05;2.55;;;;;;;-0.53;100.00;102361.69;5090629;28;20027;-96
2023/01/31 00:29:39;;;;;;;17.93;2.00;;;;;;;-0.43;100.00;102385.34;5093308;28;20028;-96
2023/01/31 00:32:05;;;;;;;29.33;2.50;;;;;;;-0.31;100.00;102404.44;5094986;28;20038;-96
2023/01/31 00:34:30;;;;;;;27.80;2.40;;;;;;;-0.49;100.00;102376.25;5097391;28;20020;-96
2023/01/31 00:36:56;;;;;;;20.47;2.77;;;;;;;-0.35;100.00;102397.78;5096732;28;20008;-96
2023/01/31 00:39:22;;;;;;;25.35;2.92;;;;;;;-0.55;100.00;102368.09;5097442;28;20009;-96
2023/01/31 00:41:47;;;;;;;25.83;3.07;;;;;;;-0.55;100.00;102370.72;5080361;28;20013;-96
2023/01/31 00:44:13;;;;;;;26.92;2.88;;;;;;;-0.50;100.00;102376.41;5097751;28;20040;-96
2023/01/31 00:46:38;;;;;;;29.70;3.00;;;;;;;-0.69;100.00;102345.69;5096385;28;20046;-96
2023/01/31 00:49:04;;;;;;;21.02;2.50;;;;;;;-0.51;100.00;102374.75;5095327;28;20024;-96
2023/01/31 00:51:33;;;;;;;26.50;2.50;;;;;;;-0.67;100.00;102355.13;5094225;28;20048;-96
2023/01/31 00:53:58;;;;;;;22.45;2.58;;;;;;;-0.74;100.00;102335.63;5088211;28;20073;-96
2023/01/31 00:56:24;;;;;;;32.17;3.07;;;;;;;-0.73;100.00;102334.63;5076218;28;20020;-96
2023/01/31 00:58:55;;;;;;;18.63;3.23;;;;;;;-0.63;100.00;102342.50;5059921;28;20279;-96
2023/01/31 01:01:33;;;;;;;;;;;;;;;;;;;;;
2023/01/31 01:04:09;;;;;;;32.38;3.80;;;;;;;-0.31;100.00;102378.94;5076640;28;20040;-96
2023/01/31 01:06:40;;;;;;;27.52;3.03;;;;;;;-0.31;100.00;102376.31;5076574;28;20025;-96
2023/01/31 01:09:06;;;;;;;28.30;2.90;;;;;;;-0.56;100.00;102346.22;5069570;28;20029;-96
2023/01/31 01:11:45;;;;;;;34.00;3.20;;;;;;;-0.39;100.00;102367.47;5075284;28;20100;-96
2023/01/31 01:14:12;;;;;;;33.80;3.95;;;;;;;-0.69;100.00;102336.00;5078323;28;20024;-96
2023/01/31 01:16:38;;;;;;;23.33;3.60;;;;;;;-0.70;100.00;102317.72;5079246;28;20078;-96
2023/01/31 01:19:16;;;;;;;35.53;3.78;;;;;;;-0.65;100.00;102333.91;5077628;28;20039;-96
2023/01/31 01:21:43;;;;;;;28.45;3.80;;;;;;;-0.73;100.00;102320.66;5077336;28;20029;-96
2023/01/31 01:24:20;;;;;;;25.98;3.53;;;;;;;-0.64;100.00;102327.66;5080966;28;20429;-96
2023/01/31 01:26:46;;;;;;;27.03;3.73;;;;;;;-0.74;100.00;102311.91;5094578;28;20012;-96
2023/01/31 01:29:12;;;;;;;22.85;3.88;;;;;;;-0.64;100.00;102327.66;5092821;28;20024;-96
2023/01/31 01:31:38;;;;;;;29.65;4.32;;;;;;;-0.76;100.00;102303.34;5093764;28;20017;-96
2023/01/31 01:34:12;;;;;;;28.52;4.30;;;;;;;-0.64;100.00;102317.13;5096101;28;20028;-96
2023/01/31 01:36:38;;;;;;;27.52;5.20;;;;;;;-0.76;100.00;102300.69;5095675;28;20028;-96
2023/01/31 01:39:05;;;;;;;32.67;4.50;;;;;;;-0.76;100.00;102298.06;5096403;28;20032;-96
2023/01/31 01:41:34;;;;;;;27.52;4.15;;;;;;;-0.57;100.00;102344.56;5097204;28;20020;-96
2023/01/31 01:44:02;;;;;;;31.58;4.47;;;;;;;-0.82;100.00;102294.22;5094787;28;20443;-96
2023/01/31 01:46:41;;;;;;;33.13;4.63;;;;;;;-0.79;100.00;102295.72;5091894;28;20056;-96
2023/01/31 01:49:30;;;;;;;34.53;5.03;;;;;;;-0.53;100.00;102334.56;5087648;28;20495;-96
2023/01/31 01:51:59;;;;;;;30.88;5.63;;;;;;;-0.70;100.00;102286.13;5096113;28;20035;-96
2023/01/31 01:54:35;;;;;;;34.33;5.87;;;;;;;-0.54;100.00;102299.47;5099200;28;20025;-96
2023/01/31 01:59:46;;;;;;;37.20;6.22;;;;;;;-0.63;100.00;102287.19;5036625;26;20033;-95
2023/01/31 02:07:19;;;;;;;42.63;6.57;;;;;;;-0.51;100.00;102314.97;5057299;28;20071;-96
2023/01/31 02:09:48;;;;;;;36.73;6.00;;;;;;;-0.66;100.00;102298.03;5059422;28;20287;-96
2023/01/31 02:12:13;;;;;;;44.75;6.05;;;;;;;-0.48;100.00;102338.41;5058871;28;20033;-96
2023/01/31 02:14:40;;;;;;;33.10;6.03;;;;;;;-0.63;100.00;102308.28;5057993;28;20033;-96
2023/01/31 02:17:14;;;;;;;28.17;6.37;;;;;;;-0.43;100.00;102335.31;5056542;28;20026;-96
2023/01/31 02:20:01;;;;;;;45.67;7.32;;;;;;;-0.34;100.00;102342.34;5059191;28;20036;-96
2023/01/31 02:22:46;;;;;;;23.05;5.97;;;;;;;-0.39;100.00;102346.41;5042908;28;20021;-96
2023/01/31 02:25:37;;;;;;;33.90;6.38;;;;;;;-0.43;100.00;102335.31;5058632;28;20045;-96
2023/01/31 02:28:19;;;;;;;40.20;7.10;;;;;;;-0.48;100.00;102314.69;5047387;28;20041;-96
2023/01/31 02:31:06;;;;;;;36.65;7.93;;;;;;;-0.17;100.00;102351.25;5052629;28;20025;-96
2023/01/31 02:33:53;;;;;;;38.33;7.43;;;;;;;-0.11;100.00;102359.53;5051951;28;20033;-96
2023/01/31 02:36:33;;;;;;;37.70;8.23;;;;;;;0.02;100.00;102357.34;5059201;28;20033;-96
2023/01/31 02:39:35;;;;;;;42.42;8.23;;;;;;;-0.12;100.00;102311.28;5059469;28;20056;-96
2023/01/31 02:42:12;;;;;;;44.70;8.13;;;;;;;0.21;100.00;102351.13;5011867;28;20036;-96
2023/01/31 02:45:00;;;;;;;42.33;8.38;;;;;;;0.07;100.00;102305.03;5058620;28;20017;-96
2023/01/31 02:47:45;;;;;;;44.53;9.53;;;;;;;0.22;100.00;102299.22;5056056;28;20049;-96
2023/01/31 02:50:19;;;;;;;36.70;8.77;;;;;;;0.28;100.00;102306.53;5055581;28;20284;-96
2023/01/31 02:52:56;;;;;;;47.85;10.52;;;;;;;0.61;100.00;102338.41;5056617;28;20025;-96
2023/01/31 03:06:32;;;;;;;49.63;10.20;;;;;;;0.78;100.00;102343.78;5056866;28;20054;-96
2023/01/31 03:09:20;;;;;;;49.08;10.30;;;;;;;0.83;100.00;102339.69;5057089;28;20094;-96
2023/01/31 03:11:55;;;;;;;46.20;11.48;;;;;;;0.80;100.00;102318.09;5039813;28;20025;-96
2023/01/31 03:14:29;;;;;;;48.63;10.80;;;;;;;0.86;100.00;102333.31;5034849;28;20029;-93
2023/01/31 03:19:59;;;;;;;40.90;9.52;;;;;;;0.79;100.00;102319.06;5031529;28;20522;-96
2023/01/31 03:22:29;;;;;;;46.77;10.77;;;;;;;0.81;100.00;102319.75;5032423;28;20080;-94
2023/01/31 03:24:55;;;;;;;50.70;10.70;;;;;;;0.83;100.00;102315.13;5031329;28;20296;-94
2023/01/31 03:27:22;;;;;;;50.78;11.45;;;;;;;0.86;100.00;102317.47;5031642;28;20029;-94
2023/01/31 03:29:48;;;;;;;42.80;10.07;;;;;;;0.86;100.00;102320.91;5031864;28;20029;-95
2023/01/31 03:32:25;;;;;;;38.75;10.60;;;;;;;0.86;100.00;102320.91;5031248;28;20029;-94
2023/01/31 03:34:52;;;;;;;40.30;11.27;;;;;;;0.84;100.00;102317.59;5032364;28;20052;-95
2023/01/31 03:37:39;;;;;;;48.80;12.07;;;;;;;0.86;100.00;102310.38;5031030;28;20032;-94
2023/01/31 03:40:15;;;;;;;54.77;10.90;;;;;;;0.86;100.00;102306.91;5031504;28;20375;-95
2023/01/31 03:42:50;;;;;;;45.08;11.88;;;;;;;0.88;100.00;102307.59;5029672;28;20037;-95
2023/01/31 03:45:29;;;;;;;40.30;11.43;;;;;;;0.92;100.00;102308.91;5019534;28;20073;-93
2023/01/31 03:47:57;;;;;;;45.35;10.30;;;;;;;0.87;100.00;102306.75;5016193;28;20026;-93
2023/01/31 03:50:29;;;;;;;46.13;12.15;;;;;;;0.87;100.00;102305.94;5030024;28;20045;-95
2023/01/31 03:53:04;;;;;;;39.55;11.23;;;;;;;0.88;100.00;102297.03;5030201;28;20603;-94
2023/01/31 03:55:35;;;;;;;45.35;11.30;;;;;;;0.90;100.00;102297.69;5031711;28;20033;-94
2023/01/31 03:58:04;;;;;;;47.53;11.57;;;;;;;0.91;100.00;102286.16;5030333;28;20029;-95
2023/01/31 04:00:34;;;;;;;41.53;12.17;;;;;;;0.92;100.00;102292.25;5031590;28;20307;-95
2023/01/31 04:03:12;;;;;;;50.88;14.40;;;;;;;0.94;100.00;102283.19;5031415;28;20464;-95
2023/01/31 04:05:37;;;;;;;49.28;12.25;;;;;;;0.96;100.00;102289.13;5031284;28;20040;-94
2023/01/31 04:08:03;;;;;;;41.00;12.13;;;;;;;1.00;100.00;102290.47;5030655;28;20388;-94
2023/01/31 04:10:29;;;;;;;48.88;11.68;;;;;;;1.03;100.00;102287.53;5030077;28;20179;-92
2023/01/31 04:12:54;;;;;;;42.67;12.57;;;;;;;0.98;100.00;102281.88;5030944;28;20104;-94
2023/01/31 04:15:20;;;;;;;45.80;12.45;;;;;;;0.96;100.00;102291.78;5031256;28;20022;-95
2023/01/31 04:17:46;;;;;;;40.07;11.90;;;;;;;0.90;100.00;102292.44;5029497;28;20095;-95
2023/01/31 04:20:12;;;;;;;52.10;12.57;;;;;;;0.87;100.00;102282.19;5031591;28;20108;-95
2023/01/31 04:22:37;;;;;;;43.03;11.67;;;;;;;0.84;100.00;102285.13;5030668;28;20036;-94
2023/01/31 04:25:03;;;;;;;49.00;12.60;;;;;;;0.87;100.00;102287.44;5030989;28;20138;-94
2023/01/31 04:27:28;;;;;;;44.67;12.03;;;;;;;0.80;100.00;102284.63;5031797;28;20026;-95
2023/01/31 04:29:53;;;;;;;40.63;11.73;;;;;;;0.76;100.00;102278.00;5039817;28;20030;-94
2023/01/31 04:32:19;;;;;;;48.40;12.10;;;;;;;0.77;100.00;102284.09;5052647;28;20018;-94
2023/01/31 04:34:44;;;;;;;57.97;13.50;;;;;;;0.77;100.00;102282.28;5040210;28;20854;-94
2023/01/31 04:37:09;;;;;;;42.27;12.03;;;;;;;0.74;100.00;102275.50;5033574;28;20045;-94
2023/01/31 04:39:35;;;;;;;52.57;13.80;;;;;;;0.71;100.00;102269.72;5035380;28;20477;-95
2023/01/31 04:42:00;;;;;;;47.83;12.70;;;;;;;0.62;100.00;102281.22;5034565;28;20049;-93
2023/01/31 04:44:25;;;;;;;48.45;12.57;;;;;;;0.55;100.00;102280.97;5034826;28;20022;-92
2023/01/31 04:46:51;;;;;;;38.67;11.47;;;;;;;0.49;100.00;102281.63;5034628;28;20084;-93
2023/01/31 04:49:16;;;;;;;38.03;12.93;;;;;;;0.46;100.00;102272.19;5035141;28;20026;-95
2023/01/31 04:51:41;;;;;;;40.50;12.03;;;;;;;0.42;100.00;102265.59;5035843;28;20018;-93
2023/01/31 04:54:07;;;;;;;42.20;12.30;;;;;;;0.38;100.00;102274.78;5036149;28;20045;-94
2023/01/31 04:56:32;;;;;;;47.70;11.73;;;;;;;0.34;100.00;102260.25;5037921;28;20510;-94
2023/01/31 04:58:58;;;;;;;43.35;12.52;;;;;;;0.30;100.00;102251.81;5037549;28;20037;-95
2023/01/31 05:01:24;;;;;;;35.87;10.80;;;;;;;0.30;100.00;102251.81;5037259;28;20028;-94
2023/01/31 05:03:50;;;;;;;49.05;13.25;;;;;;;0.28;100.00;102245.88;5038096;28;20048;-95
2023/01/31 05:06:15;;;;;;;44.33;13.50;;;;;;;0.32;100.00;102249.00;5034259;28;20711;-89
2023/01/31 05:08:40;;;;;;;51.93;13.57;;;;;;;0.38;100.00;102245.78;5033835;28;20029;-94
2023/01/31 05:11:06;;;;;;;43.50;12.77;;;;;;;0.43;100.00;102246.97;5032238;28;20018;-89
2023/01/31 05:13:36;;;;;;;48.20;14.05;;;;;;;0.56;100.00;102238.63;5029193;28;20017;-91
2023/01/31 05:16:04;;;;;;;56.78;16.00;;;;;;;0.67;100.00;102240.19;5032927;28;20018;-92
2023/01/31 05:18:29;;;;;;;60.83;16.58;;;;;;;0.77;100.00;102247.13;5033890;28;20040;-92
2023/01/31 05:20:55;;;;;;;49.30;14.13;;;;;;;0.86;100.00;102241.75;5035720;28;20485;-92
2023/01/31 05:23:21;;;;;;;51.50;15.88;;;;;;;0.91;100.00;102241.28;5033329;28;20040;-90
2023/01/31 05:25:48;;;;;;;55.27;16.57;;;;;;;0.93;100.00;102226.09;5033046;28;20573;-91
2023/01/31 05:28:14;;;;;;;49.90;13.75;;;;;;;0.99;100.00;102233.38;5034662;28;20508;-92
2023/01/31 05:30:39;;;;;;;54.70;14.83;;;;;;;1.00;100.00;102234.22;5034529;28;20025;-93
2023/01/31 05:33:05;;;;;;;53.63;14.57;;;;;;;1.02;100.00;102235.72;5045289;28;20556;-92
2023/01/31 05:35:30;;;;;;;44.83;13.00;;;;;;;1.01;100.00;102220.84;5053955;28;20283;-92
2023/01/31 05:37:55;;;;;;;58.80;18.53;;;;;;;1.05;100.00;102230.13;5033348;28;20018;-90
2023/01/31 05:40:21;;;;;;;47.37;12.97;;;;;;;1.01;100.00;102239.34;5047588;28;20022;-93
2023/01/31 05:42:54;;;;;;;53.42;13.88;;;;;;;1.00;100.00;102228.94;5047929;28;20380;-95
2023/01/31 05:45:19;;;;;;;45.10;13.00;;;;;;;1.02;100.00;102213.75;5043716;28;20036;-94
2023/01/31 05:47:46;;;;;;;35.55;11.27;;;;;;;0.98;100.00;102207.16;5044122;28;20057;-94
2023/01/31 05:50:12;;;;;;;46.40;11.90;;;;;;;0.97;100.00;102216.06;5031064;28;20026;-93
2023/01/31 05:52:37;;;;;;;41.97;10.87;;;;;;;0.96;100.00;102220.50;5036478;28;20292;-94
2023/01/31 05:55:02;;;;;;;34.80;11.07;;;;;;;0.98;100.00;102226.44;5024694;28;20057;-93
2023/01/31 05:57:28;;;;;;;36.33;11.27;;;;;;;0.99;100.00;102217.53;5034922;28;20033;-94
2023/01/31 05:59:53;;;;;;;44.77;10.83;;;;;;;1.01;100.00;102206.81;5040732;28;20059;-95
2023/01/31 06:02:18;;;;;;;49.42;12.52;;;;;;;1.10;100.00;102205.03;5042117;28;20017;-96
2023/01/31 06:04:44;;;;;;;52.80;11.00;;;;;;;1.12;100.00;102219.75;5034548;28;20064;-94
2023/01/31 06:07:09;;;;;;;45.83;10.83;;;;;;;1.12;100.00;102224.19;5054084;28;20170;-95
2023/01/31 06:09:39;;;;;;;45.53;12.13;;;;;;;1.13;100.00;102217.91;5035506;28;20049;-95
2023/01/31 06:12:06;;;;;;;37.80;11.02;;;;;;;1.15;100.00;102231.78;5040231;28;20033;-96
2023/01/31 06:14:32;;;;;;;40.25;10.95;;;;;;;1.18;100.00;102226.19;5053165;28;20029;-94
2023/01/31 06:16:57;;;;;;;36.38;9.88;;;;;;;1.23;100.00;102221.25;5055815;28;20325;-95
2023/01/31 06:19:24;;;;;;;39.17;9.83;;;;;;;1.23;100.00;102212.50;5040716;28;20135;-93
2023/01/31 06:21:50;;;;;;;38.15;10.00;;;;;;;1.26;100.00;102220.94;5042458;28;20064;-94
2023/01/31 06:24:15;;;;;;;32.70;9.20;;;;;;;1.29;100.00;102223.22;5054977;28;20036;-95
2023/01/31 06:26:41;;;;;;;37.50;9.60;;;;;;;1.31;100.00;102215.16;5054751;28;20025;-95
2023/01/31 06:29:09;;;;;;;37.53;9.10;;;;;;;1.36;100.00;102234.00;5023036;28;20088;-94
2023/01/31 06:31:34;;;;;;;41.30;8.30;;;;;;;1.34;100.00;102228.06;5017147;28;20276;-96
2023/01/31 06:33:59;;;;;;;27.88;9.13;;;;;;;1.35;100.00;102214.69;5036973;28;20033;-95
2023/01/31 06:36:25;;;;;;;39.53;9.37;;;;;;;1.44;100.00;102222.63;5017780;28;20022;-95
2023/01/31 06:38:51;;;;;;;30.07;8.70;;;;;;;1.43;100.00;102218.34;5025982;28;20378;-96
2023/01/31 06:41:18;;;;;;;37.95;8.88;;;;;;;1.41;100.00;102201.81;5017174;28;20033;-96
2023/01/31 06:43:43;;;;;;;21.80;7.60;;;;;;;1.45;100.00;102208.44;5032839;28;20449;-94
2023/01/31 06:46:08;;;;;;;30.77;8.93;;;;;;;1.47;100.00;102211.72;5035117;28;20037;-95
2023/01/31 06:48:34;;;;;;;34.80;8.97;;;;;;;1.50;100.00;102206.94;5015582;28;20045;-94
2023/01/31 06:50:59;;;;;;;34.10;9.23;;;;;;;1.51;100.00;102181.34;5034273;28;20048;-96
2023/01/31 06:53:24;;;;;;;33.10;8.70;;;;;;;1.62;100.00;102191.59;5034215;28;20417;-95
2023/01/31 06:55:50;;;;;;;27.77;8.77;;;;;;;1.57;100.00;102185.97;5036152;28;20029;-96
2023/01/31 06:58:15;;;;;;;35.10;7.87;;;;;;;1.61;100.00;102192.59;5033503;28;20477;-95
2023/01/31 07:00:40;;;;;;;27.85;7.95;;;;;;;1.61;100.00;102187.31;5040201;28;20043;-93
2023/01/31 07:03:06;;;;;;;30.00;8.60;;;;;;;1.66;100.00;102190.25;5033832;28;20108;-94
2023/01/31 07:05:31;;;;;;;31.70;7.87;;;;;;;1.66;100.00;102184.16;5034403;28;20033;-94
2023/01/31 07:07:56;;;;;;;28.90;8.20;;;;;;;1.71;100.00;102192.44;5035834;28;20033;-90
2023/01/31 07:10:21;;;;;;;26.47;7.73;;;;;;;1.72;100.00;102183.53;5037537;28;20033;-94
2023/01/31 07:12:47;;;;;;;26.93;8.47;;;;;;;1.78;100.00;102176.75;5041810;28;20033;-90
2023/01/31 07:15:20;;;;;;;27.90;8.02;;;;;;;1.83;100.00;102174.41;5038805;28;20028;-95
2023/01/31 07:17:46;;;;;;;28.53;8.03;;;;;;;1.83;100.00;102165.66;5020120;28;20040;-96
2023/01/31 07:20:18;;;;;;;33.05;8.30;;;;;;;1.88;100.00;102182.66;5022438;28;20034;-96
2023/01/31 07:22:53;;;;;;;27.88;7.60;;;;;;;1.90;100.00;102179.88;5040067;28;20034;-96
2023/01/31 07:25:18;;;;;;;21.67;6.75;;;;;;;1.92;100.00;102173.41;5020521;28;20563;-95
2023/01/31 07:27:43;;;;;;;27.23;8.47;;;;;;;1.93;100.00;102164.50;5023411;28;20033;-96
2023/01/31 07:30:10;;;;;;;31.33;7.40;;;;;;;2.02;100.00;102172.41;5021462;28;20041;-96
2023/01/31 07:32:35;;;;;;;27.70;7.43;;;;;;;2.02;100.00;102167.13;5020357;28;20393;-96
2023/01/31 07:35:00;;;;;;;26.38;7.30;;;;;;;2.10;100.00;102167.94;5024163;28;20026;-96
2023/01/31 07:37:26;;;;;;;23.50;6.73;;;;;;;2.09;100.00;102165.47;5026424;28;20138;-96
2023/01/31 07:39:52;;;;;;;29.17;6.57;;;;;;;2.17;100.00;102169.91;5020997;28;20022;-95
2023/01/31 07:42:17;;;;;;;27.47;7.47;;;;;;;2.23;100.00;102166.59;5036613;28;20032;-96
2023/01/31 07:44:42;;;;;;;22.33;6.93;;;;;;;2.27;100.00;102174.03;5037671;28;20052;-95
2023/01/31 07:47:07;;;;;;;22.77;6.60;;;;;;;2.27;100.00;102152.84;5035960;28;20064;-96
2023/01/31 07:49:34;;;;;;;24.00;6.10;;;;;;;2.37;100.00;102170.38;5035942;28;20025;-96
2023/01/31 07:52:00;;;;;;;24.38;6.75;;;;;;;2.44;100.00;102155.44;5044596;28;20037;-94
2023/01/31 07:54:26;;;;;;;29.40;6.05;;;;;;;2.48;100.00;102162.06;5029465;28;20052;-96
2023/01/31 07:56:51;;;;;;;21.87;6.20;;;;;;;2.50;100.00;102138.91;5022327;28;20022;-92
2023/01/31 07:59:17;;;;;;;19.65;6.40;;;;;;;2.55;100.00;102149.81;5041818;28;20160;-95
2023/01/31 08:04:26;;;;;;;29.35;6.20;;;;;;;2.66;100.00;102150.41;5033001;28;20048;-92
2023/01/31 08:06:55;;;;;;;27.87;6.27;;;;;;;2.72;100.00;102155.03;5019779;28;20021;-96
2023/01/31 08:09:21;;;;;;;24.63;5.90;;;;;;;2.75;100.00;102144.06;5038409;28;20085;-96
2023/01/31 08:11:47;;;;;;;20.98;6.53;;;;;;;2.78;100.00;102140.28;5034810;28;20036;-96
2023/01/31 08:14:13;;;;;;;28.70;6.57;;;;;;;2.83;100.00;102138.75;5035967;28;20108;-95
2023/01/31 08:16:38;;;;;;;22.45;5.85;;;;;;;2.88;100.00;102141.72;5047538;28;20025;-96
2023/01/31 08:19:04;;;;;;;25.10;5.67;;;;;;;2.91;100.00;102123.81;5048617;28;20025;-85
2023/01/31 08:21:30;;;;;;;24.40;5.43;;;;;;;3.00;100.00;102138.66;5032940;28;20061;-96
2023/01/31 08:26:30;;;;;;;27.70;5.53;;;;;;;2.98;100.00;102109.72;5672471;22;20058;-94
2023/01/31 08:28:56;;;;;;;25.43;6.30;;;;;;;2.91;100.00;102100.81;5061008;28;20021;-92
2023/01/31 08:31:24;;;;;;;20.00;5.30;;;;;;;3.05;100.00;102104.53;5038786;28;20021;-94
2023/01/31 08:34:17;;;;;;;21.60;5.83;;;;;;;3.27;100.00;102141.81;5060528;28;20067;-95
2023/01/31 08:36:43;;;;;;;17.08;4.68;;;;;;;3.25;100.00;102109.38;5057988;28;20021;-94
2023/01/31 08:39:14;;;;;;;23.08;5.50;;;;;;;3.16;100.00;102096.16;5038358;28;20174;-94
2023/01/31 08:41:41;;;;;;;20.15;5.13;;;;;;;3.30;100.00;102109.63;5053571;28;20048;-94
2023/01/31 08:44:20;;;;;;;23.98;5.00;;;;;;;3.30;100.00;102105.19;5053793;28;20070;-94
2023/01/31 08:49:21;;;;;;;15.13;4.70;;;;;;;3.51;100.00;102101.03;5086484;22;20278;-95
2023/01/31 08:51:46;;;;;;;23.08;5.05;;;;;;;3.56;100.00;102092.53;5042202;28;20021;-91
2023/01/31 08:54:12;;;;;;;17.27;4.50;;;;;;;3.59;100.00;102100.94;5031686;28;20064;-94
2023/01/31 08:56:37;;;;;;;23.02;5.93;;;;;;;3.63;100.00;102101.44;5003032;28;20030;-94
2023/01/31 08:59:03;;;;;;;26.10;4.83;;;;;;;3.61;100.00;102088.34;5018214;28;20033;-95
2023/01/31 09:01:28;;;;;;;19.07;4.63;;;;;;;3.68;100.00;102091.09;5032332;28;20629;-93
2023/01/31 09:03:55;;;;;;;27.27;5.90;;;;;;;3.76;100.00;102083.06;5047003;28;20140;-94
2023/01/31 09:06:25;;;;;;;33.70;5.18;;;;;;;3.93;100.00;102077.59;5016737;28;20504;-93
2023/01/31 09:08:51;;;;;;;28.27;5.40;;;;;;;4.13;100.00;102092.97;5032572;28;20077;-96
2023/01/31 09:11:17;;;;;;;25.67;5.37;;;;;;;4.11;100.00;102081.72;5010256;28;20026;-93
2023/01/31 09:13:43;;;;;;;19.30;5.03;;;;;;;4.12;100.00;102084.16;5009891;28;20388;-90
2023/01/31 09:16:10;;;;;;;14.60;4.07;;;;;;;4.15;100.00;102096.25;5011621;28;20068;-89
2023/01/31 09:18:38;;;;;;;19.33;4.88;;;;;;;4.15;100.00;102094.41;5029559;28;20514;-89
2023/01/31 09:21:08;;;;;;;18.67;4.85;;;;;;;4.16;100.00;102101.38;5029449;28;20083;-92
2023/01/31 09:23:33;;;;;;;21.02;4.70;;;;;;;4.19;100.00;102085.09;5029747;28;20516;-92
2023/01/31 09:25:59;;;;;;;17.90;4.55;;;;;;;4.29;100.00;102082.16;5034027;28;20033;-93
2023/01/31 09:28:25;;;;;;;19.97;4.03;;;;;;;4.47;100.00;102073.81;5032995;28;20069;-91
2023/01/31 09:33:37;;;;;;;14.97;4.60;;;;;;;4.64;100.00;102042.53;5168150;23;20049;-90
2023/01/31 09:36:12;;;;;;;22.43;4.90;;;;;;;4.93;100.00;102061.22;5045143;28;20825;-90
2023/01/31 09:38:39;;;;;;;21.08;4.50;;;;;;;4.95;100.00;102065.31;5037463;28;20039;-90
2023/01/31 09:41:27;;;;;;;21.50;4.35;;;;;;;5.02;100.00;102067.22;5052869;28;20021;-91
2023/01/31 09:43:57;;;;;;;17.20;4.57;;;;;;;5.07;100.00;102076.25;5035651;28;20037;-91
2023/01/31 09:46:27;;;;;;;18.88;4.25;;;;;;;5.10;100.00;102075.88;5047615;28;20053;-91
2023/01/31 09:48:56;;;;;;;24.10;4.20;;;;;;;5.09;100.00;102084.88;5033479;28;20025;-91
2023/01/31 09:54:25;;;;;;;16.67;3.83;;;;;;;5.19;100.00;102071.25;6106588;22;20255;-91
2023/01/31 09:57:18;;;;;;;20.88;3.85;;;;;;;5.27;100.00;102076.44;4993091;28;20045;-91
2023/01/31 10:00:09;;;;;;;14.23;3.88;;;;;;;5.37;100.00;102076.13;4977203;28;20078;-92
2023/01/31 10:02:54;;;;;;;22.48;4.75;;;;;;;5.47;100.00;102073.13;5799856;23;20097;-90
2023/01/31 10:05:47;;;;;;;23.95;4.63;;;;;;;5.49;100.00;102073.75;5037536;28;20045;-92
2023/01/31 10:08:42;;;;;;;17.30;3.85;;;;;;;5.49;100.00;102068.41;5053784;28;20095;-91
2023/01/31 10:11:22;;;;;;;13.17;4.00;;;;;;;5.44;100.00;102060.22;5012721;28;20041;-91
2023/01/31 10:13:57;;;;;;;21.48;5.18;;;;;;;5.43;100.00;102058.59;5056818;28;20033;-90
2023/01/31 10:17:14;;;;;;;15.77;3.92;;;;;;;5.55;100.00;102066.84;5047428;28;20036;-90
2023/01/31 10:19:58;;;;;;;19.55;4.65;;;;;;;5.77;100.00;102059.63;5002682;28;20566;-90
2023/01/31 10:22:35;;;;;;;17.77;4.53;;;;;;;5.97;100.00;102051.75;5054125;28;20415;-90
2023/01/31 10:25:07;;;;;;;18.23;5.35;;;;;;;6.08;100.00;102039.75;5054252;28;20473;-91
2023/01/31 10:28:14;;;;;;;23.07;5.37;;;;;;;6.04;100.00;102055.31;5036635;28;20029;-90
2023/01/31 10:30:47;;;;;;;19.27;5.80;;;;;;;5.84;100.00;102057.00;5037936;28;20341;-91
2023/01/31 10:33:32;;;;;;;18.55;5.75;;;;;;;5.70;100.00;102075.56;5057280;28;20033;-91
2023/01/31 10:36:03;;;;;;;22.38;6.07;;;;;;;5.59;100.00;102066.25;5058243;28;20029;-91
2023/01/31 10:38:38;;;;;;;28.13;6.82;;;;;;;5.52;100.00;102078.69;5054008;28;20021;-90
2023/01/31 10:45:06;;;;;;;21.17;6.57;;;;;;;5.53;100.00;102075.00;5026765;28;20578;-90
2023/01/31 10:51:42;;;;;;;21.43;8.13;;;;;;;5.72;100.00;102062.03;5035685;22;20080;-90
2023/01/31 10:54:45;;;;;;;25.83;9.13;;;;;;;5.57;100.00;102023.09;5017305;28;20285;-90
2023/01/31 11:04:21;;;;;;;23.42;8.85;;;;;;;5.73;100.00;102011.34;5016463;28;20094;-91
2023/01/31 11:06:46;;;;;;;27.60;9.70;;;;;;;5.97;100.00;102048.28;5027096;28;20029;-90
2023/01/31 11:09:38;;;;;;;22.80;9.27;;;;;;;6.00;100.00;102043.41;5032431;28;20094;-90
2023/01/31 11:16:32;;;;;;;;;;;;;;;;;;;;;
2023/01/31 11:19:19;;;;;;;22.25;9.13;;;;;;;6.41;100.00;102038.25;5011728;28;20040;-91
2023/01/31 11:22:07;;;;;;;27.23;9.50;;;;;;;6.41;100.00;102001.78;5030202;28;20033;-87
2023/01/31 11:24:46;;;;;;;32.58;9.70;;;;;;;6.47;100.00;101989.53;5012771;28;20128;-93
2023/01/31 11:27:41;;;;;;;20.13;9.13;;;;;;;6.85;100.00;102012.94;5015256;28;20021;-91
2023/01/31 11:33:03;;;;;;;22.45;8.35;;;;;;;6.36;100.00;101972.31;5061699;22;20057;-91
2023/01/31 11:36:12;;;;;;;21.95;8.68;;;;;;;6.41;100.00;101963.72;5011618;28;20464;-91
2023/01/31 11:42:19;;;;;;;24.33;8.70;;;;;;;6.42;100.00;102016.75;5124102;23;20056;-96
2023/01/31 11:45:35;;;;;;;26.60;8.23;;;;;;;6.45;100.00;102024.34;5049750;28;20391;-92
2023/01/31 11:48:52;;;;;;;23.38;7.68;;;;;;;6.35;100.00;101981.31;5034550;28;20081;-90
2023/01/31 11:51:47;;;;;;;19.45;8.27;;;;;;;6.24;100.00;101969.41;4957351;28;20050;-92
2023/01/31 11:54:53;;;;;;;22.88;7.85;;;;;;;6.46;100.00;101991.38;4964246;28;20031;-90
2023/01/31 11:57:43;;;;;;;21.83;7.90;;;;;;;6.40;100.00;101994.81;5035488;28;20060;-91
2023/01/31 12:00:25;;;;;;;20.58;7.68;;;;;;;6.16;100.00;101983.72;5033837;28;20172;-89
2023/01/31 12:03:22;;;;;;;19.77;7.27;;;;;;;6.14;100.00;101983.09;5042411;28;20037;-90
2023/01/31 12:06:30;;;;;;;21.00;7.30;;;;;;;6.14;100.00;101995.56;5047955;28;20295;-90
2023/01/31 12:09:00;;;;;;;18.52;7.65;;;;;;;5.97;100.00;101984.44;5057291;28;20060;-91
2023/01/31 12:11:44;;;;;;;20.52;8.05;;;;;;;5.96;100.00;101974.81;5055748;28;20047;-92
2023/01/31 12:14:39;;;;;;;19.30;7.55;;;;;;;5.83;100.00;101968.41;5050061;28;20033;-91
2023/01/31 12:17:11;;;;;;;25.00;8.50;;;;;;;5.69;100.00;101956.03;5044494;28;20052;-89
2023/01/31 12:25:47;;;;;;;20.63;6.83;;;;;;;5.87;100.00;101990.91;5050698;28;20076;-92
2023/01/31 12:28:36;;;;;;;22.90;7.45;;;;;;;5.85;100.00;101998.28;5029261;28;20036;-89
2023/01/31 12:37:45;;;;;;;20.45;7.75;;;;;;;5.67;100.00;101976.69;4991322;28;20053;-90
2023/01/31 12:40:37;;;;;;;28.87;8.50;;;;;;;5.65;100.00;101976.09;4994084;28;20034;-90
2023/01/31 12:43:27;;;;;;;25.83;8.77;;;;;;;5.59;100.00;101969.69;5001010;28;20030;-89
2023/01/31 12:46:23;;;;;;;25.63;9.93;;;;;;;5.49;100.00;101958.59;4983012;28;20107;-89
2023/01/31 12:49:06;;;;;;;24.03;9.43;;;;;;;5.59;100.00;101981.16;4991655;28;20060;-88
2023/01/31 12:51:59;;;;;;;23.17;9.07;;;;;;;5.48;100.00;101957.78;4996968;28;20305;-88